Time;durP1;ratioP1;P1;durP2;ratioP2;P2;SDS_P1;SDS_P2;PMS_P1;PMS_P2;Temp;Humidity;BMP_temperature;BMP_pressure;BME280_temperature;BME280_humidity;BME280_pressure;Samples;Min_cycle;Max_cycle;Signal;HPM_P1;HPM_P2
2024/04/07 00:01:12;;;;;;;9.13;4.07;;;19.40;99.90;;;;;;5055533;28;20274;-73
2024/04/07 00:03:56;;;;;;;3.95;3.63;;;19.40;99.90;;;;;;5055717;28;20195;-73
2024/04/07 00:06:31;;;;;;;4.15;3.78;;;19.40;99.90;;;;;;5054852;28;20675;-73
2024/04/07 00:09:01;;;;;;;4.63;3.75;;;19.40;99.90;;;;;;5054845;28;20266;-73
2024/04/07 00:11:33;;;;;;;4.43;3.90;;;19.40;99.90;;;;;;5055435;28;20271;-73
2024/04/07 00:14:05;;;;;;;3.88;3.50;;;19.40;99.90;;;;;;5055362;28;20183;-73
2024/04/07 00:16:33;;;;;;;3.40;3.17;;;19.30;99.90;;;;;;5054913;28;20241;-73
2024/04/07 00:19:01;;;;;;;3.55;3.28;;;19.30;99.90;;;;;;5054970;28;20203;-73
2024/04/07 00:21:34;;;;;;;7.75;2.75;;;19.30;99.90;;;;;;5054460;28;20207;-73
2024/04/07 00:24:04;;;;;;;5.18;3.13;;;19.30;99.90;;;;;;5054776;28;20194;-73
2024/04/07 00:26:33;;;;;;;2.95;2.65;;;19.30;99.90;;;;;;5054800;28;20298;-73
2024/04/07 00:29:04;;;;;;;3.33;2.63;;;19.30;99.90;;;;;;5054638;28;20199;-73
2024/04/07 00:31:34;;;;;;;4.13;2.80;;;19.20;99.90;;;;;;5054962;28;20184;-73
2024/04/07 00:34:03;;;;;;;2.53;2.33;;;19.20;99.90;;;;;;5055219;28;20203;-73
2024/04/07 00:36:31;;;;;;;4.35;2.53;;;19.10;99.90;;;;;;5054681;28;20212;-73
2024/04/07 00:39:03;;;;;;;3.40;2.20;;;19.20;99.90;;;;;;5054411;28;20195;-73
2024/04/07 00:41:45;;;;;;;2.45;2.22;;;19.10;99.90;;;;;;5054769;28;20267;-73
2024/04/07 00:44:17;;;;;;;3.95;2.90;;;19.10;99.90;;;;;;5054744;28;20184;-73
2024/04/07 00:46:45;;;;;;;5.50;2.20;;;19.10;99.90;;;;;;5054566;28;20216;-73
2024/04/07 00:49:16;;;;;;;4.03;2.25;;;19.10;99.90;;;;;;5054859;28;20295;-73
2024/04/07 00:51:48;;;;;;;3.38;2.22;;;19.10;99.90;;;;;;5054205;28;20670;-73
2024/04/07 00:54:16;;;;;;;3.08;2.40;;;19.00;99.90;;;;;;5054703;28;20192;-73
2024/04/07 00:56:51;;;;;;;4.45;2.25;;;19.00;99.90;;;;;;5053231;28;20547;-73
2024/04/07 00:59:25;;;;;;;2.58;2.38;;;19.10;99.90;;;;;;5054119;28;20647;-72
2024/04/07 01:02:05;;;;;;;4.50;2.75;;;19.00;99.90;;;;;;5054625;28;20230;-73
2024/04/07 01:04:39;;;;;;;4.45;2.40;;;19.00;99.90;;;;;;5054366;28;20183;-73
2024/04/07 01:07:19;;;;;;;6.78;2.55;;;19.00;99.90;;;;;;5054278;28;20543;-73
2024/04/07 01:09:50;;;;;;;3.70;2.58;;;18.90;99.90;;;;;;5053670;28;20227;-73
2024/04/07 01:12:22;;;;;;;2.22;1.92;;;18.90;99.90;;;;;;5053986;28;20203;-74
2024/04/07 01:14:59;;;;;;;3.45;2.25;;;18.90;99.90;;;;;;5053766;28;20224;-73
2024/04/07 01:17:27;;;;;;;5.25;2.00;;;18.90;99.90;;;;;;5054088;28;20194;-73
2024/04/07 01:20:00;;;;;;;5.68;2.08;;;18.80;99.90;;;;;;5054031;28;20195;-73
2024/04/07 01:22:34;;;;;;;3.70;1.67;;;18.80;99.90;;;;;;5053663;28;20191;-73
2024/04/07 01:25:03;;;;;;;2.30;1.70;;;18.70;99.90;;;;;;5053532;28;20210;-72
2024/04/07 01:27:37;;;;;;;6.45;1.55;;;18.60;99.90;;;;;;5053937;28;20191;-73
2024/04/07 01:30:05;;;;;;;2.80;1.58;;;18.60;99.90;;;;;;5041960;22;20234;-73
2024/04/07 01:32:32;;;;;;;6.13;1.70;;;18.60;99.90;;;;;;5052527;28;20257;-72
2024/04/07 01:34:58;;;;;;;7.05;1.88;;;18.50;99.90;;;;;;5053517;28;20206;-73
2024/04/07 01:37:30;;;;;;;2.83;1.65;;;18.50;99.90;;;;;;5053876;28;20195;-73
2024/04/07 01:40:01;;;;;;;2.35;1.30;;;18.40;99.90;;;;;;5053839;28;20298;-73
2024/04/07 01:42:29;;;;;;;7.20;1.40;;;18.40;99.90;;;;;;5053483;28;20223;-74
2024/04/07 01:44:55;;;;;;;3.83;1.50;;;18.30;99.90;;;;;;5053246;28;20219;-74
2024/04/07 01:47:22;;;;;;;1.77;1.17;;;18.30;99.90;;;;;;5053432;28;20219;-73
2024/04/07 01:49:49;;;;;;;2.78;1.48;;;18.20;99.90;;;;;;5053738;28;20214;-73
2024/04/07 01:52:16;;;;;;;1.98;1.15;;;18.20;99.90;;;;;;5053608;28;20747;-72
2024/04/07 01:54:42;;;;;;;3.92;1.35;;;18.20;99.90;;;;;;5053342;28;20199;-74
2024/04/07 01:57:14;;;;;;;5.35;1.20;;;18.20;99.90;;;;;;5053134;28;20195;-74
2024/04/07 01:59:42;;;;;;;1.17;0.90;;;18.20;99.90;;;;;;5053318;28;20187;-73
2024/04/07 02:02:09;;;;;;;2.33;1.15;;;18.20;99.90;;;;;;5053463;28;20231;-75
2024/04/07 02:04:38;;;;;;;1.77;1.27;;;18.10;99.90;;;;;;5053542;28;20246;-72
2024/04/07 02:07:05;;;;;;;3.95;0.77;;;18.10;99.90;;;;;;5052769;28;20663;-73
2024/04/07 02:09:31;;;;;;;3.38;1.10;;;18.10;99.90;;;;;;5053435;28;20199;-74
2024/04/07 02:11:58;;;;;;;1.35;0.90;;;18.10;99.90;;;;;;5053360;28;20249;-71
2024/04/07 02:14:24;;;;;;;0.73;0.73;;;18.00;99.90;;;;;;5053065;28;20664;-72
2024/04/07 02:16:52;;;;;;;4.15;1.02;;;18.00;99.90;;;;;;5053311;28;20230;-74
2024/04/07 02:19:18;;;;;;;1.08;0.80;;;17.90;99.90;;;;;;5053058;28;20195;-73
2024/04/07 02:21:50;;;;;;;0.90;0.70;;;17.90;99.90;;;;;;5052951;28;20241;-73
2024/04/07 02:24:16;;;;;;;1.38;0.93;;;17.80;99.90;;;;;;5053310;28;20179;-72
2024/04/07 02:26:45;;;;;;;3.80;0.90;;;17.80;99.90;;;;;;5052733;28;20277;-72
2024/04/07 02:29:11;;;;;;;1.27;0.75;;;17.70;99.90;;;;;;5053264;28;20204;-72
2024/04/07 02:31:38;;;;;;;0.98;0.63;;;17.70;99.90;;;;;;5053370;28;20622;-73
2024/04/07 02:34:08;;;;;;;1.42;0.80;;;17.70;99.90;;;;;;5053300;28;20584;-73
2024/04/07 02:36:35;;;;;;;0.70;0.70;;;17.70;99.90;;;;;;5053022;28;20505;-73
2024/04/07 02:39:02;;;;;;;0.80;0.73;;;17.60;99.90;;;;;;5052858;28;20192;-73
2024/04/07 02:41:29;;;;;;;1.55;0.77;;;17.60;99.90;;;;;;5053181;28;20199;-73
2024/04/07 02:43:55;;;;;;;1.00;0.77;;;17.60;99.90;;;;;;5053157;28;20218;-73
2024/04/07 02:49:07;;;;;;;0.70;0.60;;;17.50;99.90;;;;;;5052923;28;20699;-73
2024/04/07 02:51:39;;;;;;;2.35;0.70;;;17.50;99.90;;;;;;5053029;28;20202;-74
2024/04/07 02:54:12;;;;;;;0.68;0.52;;;17.40;99.90;;;;;;5053400;28;20206;-72
2024/04/07 02:56:38;;;;;;;0.85;0.73;;;17.40;99.90;;;;;;5052466;28;20199;-73
2024/04/07 02:59:05;;;;;;;2.13;0.95;;;17.30;99.90;;;;;;5053154;28;20269;-73
2024/04/07 03:01:31;;;;;;;0.90;0.60;;;17.40;99.90;;;;;;5052611;28;20231;-74
2024/04/07 03:04:00;;;;;;;3.35;0.68;;;17.30;99.90;;;;;;5053002;28;20200;-72
2024/04/07 03:06:27;;;;;;;1.13;0.60;;;17.20;99.90;;;;;;5052788;28;20215;-73
2024/04/07 03:08:57;;;;;;;2.90;0.95;;;17.20;99.90;;;;;;5052563;28;20282;-72
2024/04/07 03:11:23;;;;;;;1.02;0.75;;;17.20;99.90;;;;;;5052851;28;20223;-74
2024/04/07 03:13:50;;;;;;;2.05;0.70;;;17.20;99.90;;;;;;5052859;28;20195;-72
2024/04/07 03:16:16;;;;;;;0.63;0.60;;;17.10;99.90;;;;;;5052870;28;20611;-73
2024/04/07 03:18:43;;;;;;;1.45;0.63;;;17.00;99.90;;;;;;5052937;28;20235;-73
2024/04/07 03:21:10;;;;;;;0.90;0.70;;;16.90;99.90;;;;;;5056103;28;20195;-73
2024/04/07 03:23:42;;;;;;;0.90;0.50;;;16.90;99.90;;;;;;5056397;28;20245;-73
2024/04/07 03:26:08;;;;;;;2.85;0.40;;;16.90;99.90;;;;;;5055761;28;20204;-73
2024/04/07 03:28:35;;;;;;;2.53;0.50;;;16.80;99.90;;;;;;5056008;28;20385;-73
2024/04/07 03:31:03;;;;;;;1.30;0.75;;;16.80;99.90;;;;;;5056176;28;20310;-73
2024/04/07 03:33:31;;;;;;;0.85;0.63;;;16.80;99.90;;;;;;5055860;28;20249;-73
2024/04/07 03:36:03;;;;;;;1.15;0.57;;;16.80;99.90;;;;;;5056139;28;20218;-71
2024/04/07 03:38:32;;;;;;;0.60;0.60;;;16.80;99.90;;;;;;5055828;28;20195;-72
2024/04/07 03:41:05;;;;;;;3.55;0.57;;;16.70;99.90;;;;;;5056028;28;20199;-72
2024/04/07 03:43:32;;;;;;;2.90;0.60;;;16.70;99.90;;;;;;5055767;28;20230;-75
2024/04/07 03:46:02;;;;;;;2.58;0.68;;;16.70;99.90;;;;;;5055857;28;20576;-73
2024/04/07 03:48:30;;;;;;;3.55;0.60;;;16.70;99.90;;;;;;5055960;28;20283;-73
2024/04/07 03:50:57;;;;;;;0.70;0.43;;;16.70;99.90;;;;;;5055813;28;20207;-73
2024/04/07 03:53:26;;;;;;;0.63;0.43;;;16.70;99.90;;;;;;5055814;28;20231;-73
2024/04/07 03:55:53;;;;;;;0.77;0.47;;;16.70;99.90;;;;;;5055557;28;20213;-73
2024/04/07 03:58:26;;;;;;;1.45;0.57;;;16.70;99.90;;;;;;5055738;28;20601;-73
2024/04/07 04:00:53;;;;;;;0.60;0.60;;;16.70;99.90;;;;;;5055363;28;20647;-73
2024/04/07 04:03:19;;;;;;;0.45;0.45;;;16.70;99.90;;;;;;5055365;28;20237;-73
2024/04/07 04:05:46;;;;;;;0.65;0.50;;;16.70;99.90;;;;;;5055832;28;20269;-73
2024/04/07 04:08:12;;;;;;;1.10;0.55;;;16.70;99.90;;;;;;5055252;28;20679;-73
2024/04/07 04:10:40;;;;;;;2.90;0.70;;;16.70;99.90;;;;;;5055494;28;20288;-74
2024/04/07 04:13:06;;;;;;;2.38;0.60;;;16.70;99.90;;;;;;5055445;28;20251;-74
2024/04/07 04:15:36;;;;;;;0.50;0.50;;;16.70;99.90;;;;;;5055483;28;20269;-72
2024/04/07 04:18:02;;;;;;;0.57;0.57;;;16.70;99.90;;;;;;5055040;28;20657;-73
2024/04/07 04:20:29;;;;;;;1.58;0.70;;;16.70;99.90;;;;;;5054993;28;20196;-73
2024/04/07 04:22:55;;;;;;;0.70;0.50;;;16.70;99.90;;;;;;5054925;28;20195;-73
2024/04/07 04:25:25;;;;;;;0.70;0.70;;;16.70;99.90;;;;;;5054861;28;20202;-74
2024/04/07 04:27:55;;;;;;;0.63;0.45;;;16.70;99.90;;;;;;5055295;28;20278;-73
2024/04/07 04:30:22;;;;;;;1.58;0.52;;;16.70;99.90;;;;;;5054627;28;20234;-72
2024/04/07 04:32:49;;;;;;;0.75;0.50;;;16.60;99.90;;;;;;5055077;28;20712;-73
2024/04/07 04:35:16;;;;;;;0.90;0.52;;;16.70;99.90;;;;;;5054714;28;20210;-73
2024/04/07 04:37:42;;;;;;;1.40;0.40;;;16.60;99.90;;;;;;5054775;28;20724;-73
2024/04/07 04:40:14;;;;;;;0.93;0.75;;;16.60;99.90;;;;;;5054578;28;20203;-74
2024/04/07 04:42:40;;;;;;;0.75;0.50;;;16.70;99.90;;;;;;5054655;28;20707;-73
2024/04/07 04:45:08;;;;;;;4.50;0.55;;;16.70;99.90;;;;;;5054777;28;20287;-73
2024/04/07 04:47:39;;;;;;;0.50;0.50;;;16.70;99.90;;;;;;5054756;28;20300;-73
2024/04/07 04:50:10;;;;;;;0.60;0.40;;;16.70;99.90;;;;;;5054444;28;20188;-73
2024/04/07 04:52:36;;;;;;;0.68;0.40;;;16.60;99.90;;;;;;5054816;28;20184;-73
2024/04/07 04:55:04;;;;;;;2.08;0.30;;;16.70;99.90;;;;;;5054364;28;20257;-73
2024/04/07 04:57:35;;;;;;;1.38;0.47;;;16.70;99.90;;;;;;5054101;28;20206;-73
2024/04/07 05:00:03;;;;;;;0.40;0.40;;;16.60;99.90;;;;;;5054552;28;20179;-73
2024/04/07 05:02:30;;;;;;;2.88;0.50;;;16.60;99.90;;;;;;5054165;28;20651;-74
2024/04/07 05:04:57;;;;;;;2.95;0.30;;;16.60;99.90;;;;;;5054794;28;20253;-75
2024/04/07 05:07:24;;;;;;;2.35;0.40;;;16.60;99.90;;;;;;5054303;28;20310;-73
2024/04/07 05:09:51;;;;;;;0.75;0.40;;;16.60;99.90;;;;;;5054380;28;20199;-73
2024/04/07 05:12:22;;;;;;;1.02;0.40;;;16.60;99.90;;;;;;5053971;28;20271;-73
2024/04/07 05:14:49;;;;;;;0.52;0.40;;;16.60;99.90;;;;;;5053960;28;20191;-74
2024/04/07 05:17:15;;;;;;;0.45;0.40;;;16.60;99.90;;;;;;5054165;28;20294;-72
2024/04/07 05:19:41;;;;;;;2.17;0.43;;;16.60;99.90;;;;;;5053908;28;20279;-73
2024/04/07 05:22:07;;;;;;;2.60;0.40;;;16.60;99.90;;;;;;5054121;28;20286;-74
2024/04/07 05:24:36;;;;;;;0.70;0.40;;;16.60;99.90;;;;;;5053807;28;20278;-73
2024/04/07 05:27:03;;;;;;;1.15;0.52;;;16.60;99.90;;;;;;5053782;28;20336;-73
2024/04/07 05:29:30;;;;;;;1.02;0.95;;;16.60;99.90;;;;;;5053528;28;20238;-73
2024/04/07 05:31:56;;;;;;;0.43;0.43;;;16.50;99.90;;;;;;5053671;28;20644;-73
2024/04/07 05:34:26;;;;;;;0.63;0.40;;;16.50;99.90;;;;;;5053946;28;20227;-73
2024/04/07 05:36:52;;;;;;;0.45;0.43;;;16.50;99.90;;;;;;5053531;28;20191;-72
2024/04/07 05:39:19;;;;;;;0.77;0.40;;;16.50;99.90;;;;;;5053547;28;20199;-73
2024/04/07 05:41:47;;;;;;;2.28;0.60;;;16.50;99.90;;;;;;5053341;28;20214;-73
2024/04/07 05:44:14;;;;;;;0.65;0.28;;;16.50;99.90;;;;;;5053408;28;20227;-73
2024/04/07 05:46:40;;;;;;;0.52;0.52;;;16.50;99.90;;;;;;5053500;28;20306;-73
2024/04/07 05:49:07;;;;;;;0.63;0.40;;;16.50;99.90;;;;;;5053385;28;20321;-72
2024/04/07 05:51:33;;;;;;;1.67;0.50;;;16.50;99.90;;;;;;5053384;28;20195;-72
2024/04/07 05:54:00;;;;;;;1.88;0.50;;;16.50;99.90;;;;;;5053595;28;20214;-72
2024/04/07 05:56:26;;;;;;;1.50;0.68;;;16.50;99.90;;;;;;5053560;28;20223;-73
2024/04/07 05:58:55;;;;;;;1.75;0.57;;;16.50;99.90;;;;;;5053526;28;20230;-73
2024/04/07 06:01:21;;;;;;;1.38;0.63;;;16.50;99.90;;;;;;5053232;28;20233;-73
2024/04/07 06:03:48;;;;;;;1.60;0.40;;;16.50;99.90;;;;;;5053488;28;20207;-72
2024/04/07 06:06:14;;;;;;;3.00;0.63;;;16.50;99.90;;;;;;5053072;28;20282;-73
2024/04/07 06:08:41;;;;;;;1.35;0.38;;;16.40;99.90;;;;;;5053447;28;20282;-74
2024/04/07 06:11:06;;;;;;;0.70;0.57;;;16.50;99.90;;;;;;5053061;28;20226;-72
2024/04/07 06:13:33;;;;;;;1.92;0.50;;;16.40;99.90;;;;;;5053394;28;20230;-74
2024/04/07 06:16:01;;;;;;;1.42;0.47;;;16.40;99.90;;;;;;5053305;28;20290;-73
2024/04/07 06:18:28;;;;;;;1.58;0.32;;;16.40;99.90;;;;;;5053410;28;20196;-73
2024/04/07 06:20:54;;;;;;;1.17;0.55;;;16.40;99.90;;;;;;5053308;28;20254;-73
2024/04/07 06:23:21;;;;;;;1.80;0.50;;;16.40;99.90;;;;;;5053343;28;20199;-74
2024/04/07 06:25:47;;;;;;;0.30;0.30;;;16.40;99.90;;;;;;5052792;28;20286;-74
2024/04/07 06:28:14;;;;;;;0.93;0.82;;;16.40;99.90;;;;;;5053310;28;20218;-73
2024/04/07 06:30:43;;;;;;;2.63;0.50;;;16.40;99.90;;;;;;5053226;28;20286;-75
2024/04/07 06:33:11;;;;;;;2.58;0.60;;;16.40;99.90;;;;;;5052881;28;20203;-74
2024/04/07 06:35:37;;;;;;;3.47;0.60;;;16.40;99.90;;;;;;5053221;28;20195;-74
2024/04/07 06:38:05;;;;;;;1.55;0.50;;;16.40;99.90;;;;;;5052936;28;20205;-74
2024/04/07 06:40:31;;;;;;;0.55;0.52;;;16.40;99.90;;;;;;5053141;28;20278;-76
2024/04/07 06:42:59;;;;;;;0.55;0.50;;;16.40;99.90;;;;;;5053146;28;20616;-74
2024/04/07 06:45:31;;;;;;;0.90;0.55;;;16.50;99.90;;;;;;5052993;28;20249;-74
2024/04/07 06:47:58;;;;;;;1.95;0.52;;;16.50;99.90;;;;;;5053138;28;20658;-74
2024/04/07 06:50:25;;;;;;;2.63;0.40;;;16.50;99.90;;;;;;5053050;28;20282;-73
2024/04/07 06:52:54;;;;;;;0.65;0.65;;;16.60;99.90;;;;;;5053378;28;20709;-73
2024/04/07 06:55:25;;;;;;;1.00;0.57;;;16.60;99.90;;;;;;5056842;28;20204;-74
2024/04/07 06:57:52;;;;;;;0.82;0.52;;;16.60;99.90;;;;;;5056663;28;20192;-72
2024/04/07 07:00:18;;;;;;;0.43;0.40;;;16.60;99.90;;;;;;5056532;28;20203;-73
2024/04/07 07:02:45;;;;;;;0.90;0.50;;;16.70;99.90;;;;;;5056476;28;20192;-74
2024/04/07 07:05:11;;;;;;;1.38;0.60;;;16.70;99.90;;;;;;5056784;28;20219;-73
2024/04/07 07:07:39;;;;;;;0.80;0.77;;;16.70;99.90;;;;;;5056307;28;20328;-74
2024/04/07 07:10:06;;;;;;;1.48;0.82;;;16.80;99.90;;;;;;5056683;28;20196;-75
2024/04/07 07:12:37;;;;;;;1.80;0.70;;;16.80;99.90;;;;;;5056733;28;20207;-73
2024/04/07 07:15:08;;;;;;;1.60;0.50;;;16.90;99.90;;;;;;5056327;28;20661;-74
2024/04/07 07:17:39;;;;;;;0.95;0.52;;;16.90;99.90;;;;;;5056652;28;20191;-74
2024/04/07 07:20:06;;;;;;;0.30;0.30;;;17.00;99.90;;;;;;5056224;28;20271;-74
2024/04/07 07:22:36;;;;;;;1.63;0.70;;;17.00;99.90;;;;;;5056537;28;20203;-74
2024/04/07 07:25:06;;;;;;;1.70;0.70;;;17.10;99.90;;;;;;5056067;28;20601;-74
2024/04/07 07:27:34;;;;;;;1.15;0.63;;;17.10;99.90;;;;;;5056185;28;20624;-74
2024/04/07 07:30:00;;;;;;;4.70;0.52;;;17.10;99.90;;;;;;5056019;28;20231;-74
2024/04/07 07:32:27;;;;;;;1.42;0.60;;;17.20;99.90;;;;;;5055873;28;20228;-74
2024/04/07 07:34:57;;;;;;;1.00;0.88;;;17.20;99.90;;;;;;5056156;28;20231;-73
2024/04/07 07:37:24;;;;;;;2.42;0.80;;;17.20;99.90;;;;;;5055827;28;20195;-73
2024/04/07 07:39:54;;;;;;;3.15;0.60;;;17.30;99.90;;;;;;5055799;28;20278;-73
2024/04/07 07:42:23;;;;;;;1.35;0.75;;;17.40;99.90;;;;;;5056088;28;20237;-73
2024/04/07 07:44:49;;;;;;;5.43;0.77;;;17.40;99.90;;;;;;5055991;28;20254;-72
2024/04/07 07:47:16;;;;;;;0.95;0.68;;;17.40;99.90;;;;;;5055575;28;20258;-73
2024/04/07 07:49:42;;;;;;;5.40;0.80;;;17.40;99.90;;;;;;5055573;28;20199;-73
2024/04/07 07:52:09;;;;;;;1.90;0.75;;;17.50;99.90;;;;;;5054873;28;20257;-73
2024/04/07 07:54:40;;;;;;;2.05;0.82;;;17.60;99.90;;;;;;5055794;28;20200;-74
2024/04/07 07:57:07;;;;;;;1.10;0.90;;;17.60;99.90;;;;;;5055579;28;20192;-74
2024/04/07 07:59:37;;;;;;;1.25;1.00;;;17.70;99.90;;;;;;5055369;28;20655;-74
2024/04/07 08:02:04;;;;;;;1.58;0.85;;;17.70;99.90;;;;;;5055815;28;20192;-74
2024/04/07 08:04:42;;;;;;;1.92;0.60;;;17.80;99.90;;;;;;5054752;28;20196;-74
2024/04/07 08:07:08;;;;;;;2.15;0.70;;;17.70;99.90;;;;;;5055586;28;20217;-75
2024/04/07 08:09:35;;;;;;;2.53;0.90;;;17.80;99.90;;;;;;5055552;28;20645;-74
2024/04/07 08:12:00;;;;;;;2.40;0.93;;;17.80;99.90;;;;;;5055380;28;20250;-74
2024/04/07 08:14:27;;;;;;;2.65;0.90;;;17.90;99.90;;;;;;5055380;28;20227;-74
2024/04/07 08:16:56;;;;;;;1.15;0.93;;;17.90;99.90;;;;;;5055509;28;20199;-73
2024/04/07 08:19:23;;;;;;;1.75;0.75;;;17.90;99.90;;;;;;5055326;28;20202;-74
2024/04/07 08:21:50;;;;;;;1.08;0.85;;;18.10;99.90;;;;;;5055369;28;20199;-74
2024/04/07 08:24:17;;;;;;;1.77;0.73;;;18.10;99.90;;;;;;5055008;28;20283;-75
2024/04/07 08:26:44;;;;;;;0.98;0.93;;;18.20;99.90;;;;;;5045947;28;20254;-75
2024/04/07 08:29:11;;;;;;;2.80;1.00;;;18.20;99.90;;;;;;5047937;28;20188;-74
2024/04/07 08:31:40;;;;;;;1.15;1.05;;;18.30;99.90;;;;;;5043287;28;20247;-73
2024/04/07 08:34:09;;;;;;;1.10;0.98;;;18.40;99.90;;;;;;5054843;28;20286;-74
2024/04/07 08:36:35;;;;;;;0.82;0.80;;;18.40;99.90;;;;;;5054525;28;20231;-74
2024/04/07 08:39:04;;;;;;;2.22;1.15;;;18.50;99.90;;;;;;5054619;28;20195;-73
2024/04/07 08:41:31;;;;;;;1.90;1.15;;;18.60;99.90;;;;;;5054907;28;20231;-74
2024/04/07 08:44:03;;;;;;;1.80;0.82;;;18.70;99.90;;;;;;5054483;28;20238;-73
2024/04/07 08:46:30;;;;;;;1.15;0.85;;;18.60;99.90;;;;;;5054774;28;20211;-74
2024/04/07 08:49:00;;;;;;;0.95;0.82;;;18.60;99.90;;;;;;5054686;28;20203;-75
2024/04/07 08:51:27;;;;;;;2.80;1.05;;;18.70;99.90;;;;;;5054673;28;20212;-75
2024/04/07 08:53:58;;;;;;;1.98;1.17;;;18.70;99.90;;;;;;5054585;28;20210;-75
2024/04/07 08:56:27;;;;;;;1.58;0.88;;;18.60;99.90;;;;;;5054464;28;20215;-74
2024/04/07 08:58:54;;;;;;;1.77;1.23;;;18.70;99.90;;;;;;5054135;28;20203;-75
2024/04/07 09:01:31;;;;;;;2.97;1.10;;;18.70;99.90;;;;;;5054210;28;20200;-75
2024/04/07 09:03:59;;;;;;;1.38;0.73;;;18.80;99.90;;;;;;5054196;28;20270;-72
2024/04/07 09:06:31;;;;;;;2.75;0.80;;;18.70;99.90;;;;;;5054334;28;20234;-74
2024/04/07 09:09:09;;;;;;;1.40;0.90;;;18.70;99.90;;;;;;5054549;28;20215;-73
2024/04/07 09:11:37;;;;;;;1.77;1.27;;;18.70;99.90;;;;;;5054073;28;20184;-73
2024/04/07 09:14:04;;;;;;;3.65;0.95;;;18.60;99.90;;;;;;5053838;28;20550;-73
2024/04/07 09:16:30;;;;;;;1.10;0.85;;;18.70;99.90;;;;;;5052902;28;20192;-74
2024/04/07 09:19:01;;;;;;;2.38;1.58;;;18.80;99.90;;;;;;5054194;28;20253;-74
2024/04/07 09:21:29;;;;;;;1.77;0.88;;;18.90;99.90;;;;;;5053884;28;20188;-75
2024/04/07 09:23:55;;;;;;;2.50;1.30;;;19.00;99.90;;;;;;5054167;28;20199;-73
2024/04/07 09:26:21;;;;;;;2.20;0.80;;;19.10;99.90;;;;;;5053396;28;20674;-74
2024/04/07 09:28:49;;;;;;;2.78;0.82;;;19.20;99.90;;;;;;5053795;28;20241;-74
2024/04/07 09:31:15;;;;;;;1.73;0.80;;;19.20;99.90;;;;;;5053145;28;20302;-75
2024/04/07 09:33:47;;;;;;;1.75;0.73;;;19.20;99.90;;;;;;5042503;28;20184;-73
2024/04/07 09:36:16;;;;;;;1.90;1.00;;;19.30;99.90;;;;;;5042958;28;20664;-74
2024/04/07 09:38:44;;;;;;;0.77;0.70;;;19.30;99.90;;;;;;5044412;28;20192;-74
2024/04/07 09:41:11;;;;;;;1.48;1.00;;;19.40;99.90;;;;;;5042909;28;20690;-74
2024/04/07 09:43:42;;;;;;;1.15;0.80;;;19.50;99.90;;;;;;5042565;28;20270;-74
2024/04/07 09:46:14;;;;;;;3.10;1.02;;;19.60;99.90;;;;;;5042911;28;20228;-73
2024/04/07 09:48:41;;;;;;;1.90;0.88;;;19.60;99.90;;;;;;5042319;28;20620;-74
2024/04/07 09:51:12;;;;;;;2.40;0.90;;;19.70;99.90;;;;;;5043471;28;20593;-73
2024/04/07 09:53:48;;;;;;;0.90;0.90;;;19.80;99.90;;;;;;5044201;28;20608;-75
2024/04/07 09:56:15;;;;;;;2.85;1.10;;;19.80;99.90;;;;;;5043544;28;20211;-75
2024/04/07 09:58:43;;;;;;;0.70;0.70;;;19.80;99.90;;;;;;5042115;28;20192;-75
2024/04/07 10:01:13;;;;;;;3.78;1.10;;;19.80;99.90;;;;;;5043376;28;20279;-75
2024/04/07 10:03:41;;;;;;;2.33;0.90;;;19.80;99.90;;;;;;5043776;28;20184;-74
2024/04/07 10:06:07;;;;;;;4.82;1.55;;;19.90;99.90;;;;;;5042468;28;20196;-74
2024/04/07 10:08:35;;;;;;;2.72;0.70;;;19.90;99.90;;;;;;5046884;28;20212;-76
2024/04/07 10:11:17;;;;;;;3.13;0.80;;;20.00;99.90;;;;;;5043665;28;20619;-75
2024/04/07 10:13:45;;;;;;;2.28;1.20;;;20.10;99.90;;;;;;5042719;28;20184;-77
2024/04/07 10:16:13;;;;;;;2.17;1.00;;;20.10;99.90;;;;;;5042184;28;20263;-74
2024/04/07 10:18:42;;;;;;;1.38;1.10;;;20.20;99.90;;;;;;5042086;28;20223;-76
2024/04/07 10:21:10;;;;;;;2.33;1.08;;;20.30;99.90;;;;;;5042654;28;20227;-76
2024/04/07 10:23:39;;;;;;;2.42;1.02;;;20.50;99.90;;;;;;5043759;28;20643;-76
2024/04/07 10:26:06;;;;;;;1.52;0.82;;;20.60;99.90;;;;;;5042371;28;20196;-75
2024/04/07 10:28:48;;;;;;;2.03;0.82;;;20.80;99.90;;;;;;5043508;28;20215;-76
2024/04/07 10:31:22;;;;;;;2.60;0.80;;;21.10;99.90;;;;;;5047051;28;20444;-74
2024/04/07 10:33:49;;;;;;;2.35;1.02;;;21.40;99.90;;;;;;5045216;28;20589;-75
2024/04/07 10:36:17;;;;;;;1.00;0.77;;;21.60;99.90;;;;;;5047370;28;20226;-75
2024/04/07 10:38:51;;;;;;;4.60;0.75;;;21.70;99.90;;;;;;5046453;28;20602;-78
2024/04/07 10:41:22;;;;;;;0.65;0.60;;;21.80;99.90;;;;;;5045447;28;20195;-76
2024/04/07 11:01:33;;;;;;;0.50;0.50;;;21.90;99.90;;;;;;4993515;28;20197;-75
2024/04/07 11:32:20;;;;;;;3.47;0.73;;;22.80;99.90;;;;;;5043632;28;20267;-75
2024/04/07 11:46:29;;;;;;;0.85;0.47;;;22.80;99.90;;;;;;5005386;28;20197;-76
2024/04/07 11:49:37;;;;;;;0.88;0.63;;;23.00;99.90;;;;;;5011021;28;20408;-75
2024/04/07 11:59:51;;;;;;;0.90;0.77;;;23.40;99.90;;;;;;4993152;28;20275;-74
2024/04/07 12:09:39;;;;;;;1.75;0.95;;;23.40;99.90;;;;;;4973676;28;20228;-76
2024/04/07 12:10:14;;;;;;;0.90;0.70;;;23.60;99.90;;;;;;4908613;29;20211;-74
2024/04/07 12:13:23;;;;;;;0.98;0.50;;;23.90;99.90;;;;;;4940055;28;20222;-75
2024/04/07 13:34:02;;;;;;;0.95;0.52;;;26.10;99.90;;;;;;4811596;29;20235;-75
2024/04/07 15:17:24;;;;;;;1.92;1.02;;;26.20;99.90;;;;;;4935602;29;20669;-76
2024/04/07 15:24:22;;;;;;;1.08;0.80;;;25.90;99.90;;;;;;4880410;29;20198;-76
2024/04/07 15:31:08;;;;;;;0.88;0.60;;;25.60;99.90;;;;;;4933299;29;20236;-77
2024/04/07 15:34:05;;;;;;;0.52;0.52;;;25.50;99.90;;;;;;4932817;29;20228;-76
2024/04/07 16:26:33;;;;;;;0.50;0.40;;;23.90;99.90;;;;;;4948484;28;20206;-75
2024/04/07 16:29:40;;;;;;;0.50;0.50;;;23.80;99.90;;;;;;4952681;29;20552;-75
2024/04/07 16:54:21;;;;;;;2.08;0.52;;;23.30;99.90;;;;;;4933070;29;20195;-76
2024/04/07 16:57:49;;;;;;;1.05;0.95;;;23.30;99.90;;;;;;4933234;29;20780;-76
2024/04/07 17:01:04;;;;;;;2.88;0.90;;;23.30;99.90;;;;;;4933388;29;20296;-76
2024/04/07 18:26:25;;;;;;;2.92;0.90;;;21.90;99.90;;;;;;4793743;29;20219;-75
2024/04/07 18:47:49;;;;;;;0.95;0.82;;;21.80;99.90;;;;;;4857375;29;20239;-76
2024/04/07 18:51:01;;;;;;;4.85;1.10;;;21.70;99.90;;;;;;4859759;29;20260;-76
2024/04/07 19:04:59;;;;;;;1.08;0.80;;;21.60;99.90;;;;;;4860485;29;20202;-73
2024/04/07 19:11:39;;;;;;;0.95;0.70;;;21.50;99.90;;;;;;4860278;29;20388;-74
2024/04/07 19:15:21;;;;;;;1.67;0.90;;;21.20;99.90;;;;;;4850653;29;20206;-75
2024/04/07 19:18:37;;;;;;;4.15;0.60;;;21.20;99.90;;;;;;4860515;29;20218;-75
2024/04/07 19:22:03;;;;;;;1.10;0.80;;;21.00;99.90;;;;;;4859998;29;20206;-75
2024/04/07 19:25:21;;;;;;;1.15;0.90;;;21.00;99.90;;;;;;4875418;29;20344;-75
2024/04/07 20:20:10;;;;;;;1.05;0.90;;;19.90;99.90;;;;;;4856561;29;20666;-75
2024/04/07 20:30:41;;;;;;;3.90;1.58;;;20.00;99.90;;;;;;4895827;29;20224;-77
2024/04/07 20:35:07;;;;;;;1.85;1.10;;;20.10;99.90;;;;;;4907624;29;20280;-76
2024/04/07 20:37:37;;;;;;;1.70;0.80;;;20.00;99.90;;;;;;4901302;29;20204;-78
2024/04/07 20:48:12;;;;;;;2.13;1.80;;;19.80;99.90;;;;;;4875644;29;20237;-76
2024/04/07 22:25:38;;;;;;;1.95;1.40;;;18.60;99.90;;;;;;4863005;29;20175;-75
